createdAt,value
2017-09-11T00:00:27.900Z,12.44
2017-09-11T00:02:55.357Z,12.41
2017-09-11T00:05:22.865Z,12.43
2017-09-11T00:07:50.325Z,12.35
2017-09-11T00:10:17.932Z,12.46
2017-09-11T00:12:45.398Z,12.33
2017-09-11T00:15:12.906Z,12.72
2017-09-11T00:17:40.376Z,12.85
2017-09-11T00:20:07.820Z,12.64
2017-09-11T00:22:35.390Z,13.05
2017-09-11T00:25:02.978Z,13.35
2017-09-11T00:27:30.452Z,13.25
2017-09-11T00:29:57.961Z,13.50
2017-09-11T00:32:25.433Z,13.33
2017-09-11T00:34:52.981Z,13.59
2017-09-11T00:37:20.486Z,13.84
2017-09-11T00:39:47.943Z,14.24
2017-09-11T00:42:15.436Z,13.96
2017-09-11T00:44:42.916Z,14.08
2017-09-11T00:47:10.468Z,13.84
2017-09-11T00:49:38.050Z,14.22
2017-09-11T00:52:05.557Z,14.13
2017-09-11T00:54:33.004Z,13.80
2017-09-11T00:57:00.486Z,13.48
2017-09-11T00:59:27.928Z,13.48
2017-09-11T01:01:55.411Z,13.45
2017-09-11T01:04:23.115Z,13.39
2017-09-11T01:06:50.629Z,13.49
2017-09-11T01:09:18.192Z,13.54
2017-09-11T01:11:45.702Z,13.34
2017-09-11T01:14:13.172Z,13.41
2017-09-11T01:16:41.633Z,13.75
2017-09-11T01:19:09.103Z,13.99
2017-09-11T01:21:36.553Z,14.06
2017-09-11T01:24:04.054Z,14.22
2017-09-11T01:26:31.499Z,14.41
2017-09-11T01:28:58.976Z,14.38
2017-09-11T01:31:26.525Z,14.65
2017-09-11T01:33:53.996Z,14.72
2017-09-11T01:36:21.435Z,14.56
2017-09-11T01:38:48.896Z,14.71
2017-09-11T01:41:16.875Z,14.93
2017-09-11T01:46:11.079Z,15.13
2017-09-11T01:48:38.616Z,15.10
2017-09-11T01:51:06.061Z,15.17
2017-09-11T01:53:33.592Z,15.29
2017-09-11T01:56:01.041Z,15.24
2017-09-11T01:58:28.512Z,15.17
2017-09-11T02:00:56.004Z,15.27
2017-09-11T02:03:23.584Z,15.47
2017-09-11T02:05:51.054Z,15.23
2017-09-11T02:08:18.505Z,15.40
2017-09-11T02:10:45.981Z,15.41
2017-09-11T02:13:13.449Z,15.40
2017-09-11T02:15:40.939Z,15.48
2017-09-11T02:18:08.400Z,15.37
2017-09-11T02:20:35.956Z,15.56
2017-09-11T02:23:03.538Z,15.35
2017-09-11T02:25:31.009Z,15.49
2017-09-11T02:27:58.537Z,15.52
2017-09-11T02:30:26.064Z,15.54
2017-09-11T02:32:53.512Z,15.62
2017-09-11T02:35:20.990Z,15.59
2017-09-11T02:37:48.457Z,15.61
2017-09-11T02:40:16.236Z,15.68
2017-09-11T02:42:43.801Z,15.73
2017-09-11T02:45:11.340Z,15.70
2017-09-11T02:47:38.905Z,15.84
2017-09-11T02:50:06.465Z,15.56
2017-09-11T02:52:34.013Z,15.54
2017-09-11T02:55:01.581Z,15.85
2017-09-11T02:57:29.156Z,15.67
2017-09-11T02:59:56.696Z,15.84
2017-09-11T03:02:24.153Z,15.64
2017-09-11T03:04:51.609Z,15.50
2017-09-11T03:07:19.075Z,15.60
2017-09-11T03:09:46.624Z,15.62
2017-09-11T03:12:14.091Z,15.76
2017-09-11T03:14:41.644Z,15.53
2017-09-11T03:17:09.129Z,15.60
2017-09-11T03:19:36.572Z,15.59
2017-09-11T03:22:04.041Z,15.84
2017-09-11T03:24:31.497Z,15.66
2017-09-11T03:26:59.013Z,15.79
2017-09-11T03:29:26.476Z,15.70
2017-09-11T03:31:53.947Z,15.82
2017-09-11T03:34:21.404Z,15.60
2017-09-11T03:36:48.880Z,15.44
2017-09-11T03:39:16.420Z,15.48
2017-09-11T03:41:43.968Z,15.60
2017-09-11T03:44:11.416Z,15.46
2017-09-11T03:46:38.892Z,15.52
2017-09-11T03:49:06.340Z,15.48
2017-09-11T03:51:33.938Z,15.36
2017-09-11T03:54:01.404Z,15.54
2017-09-11T03:56:28.872Z,15.49
2017-09-11T03:58:56.324Z,15.54
2017-09-11T04:01:23.804Z,15.60
2017-09-11T04:03:51.305Z,15.68
2017-09-11T04:06:18.811Z,15.69
2017-09-11T04:08:46.292Z,15.87
2017-09-11T04:11:13.736Z,15.79
2017-09-11T04:13:41.223Z,15.58
2017-09-11T04:16:08.968Z,15.54
2017-09-11T04:18:36.452Z,15.59
2017-09-11T04:21:03.990Z,15.57
2017-09-11T04:23:31.471Z,15.50
2017-09-11T04:25:58.987Z,15.47
2017-09-11T04:28:26.462Z,15.53
2017-09-11T04:30:53.908Z,15.43
2017-09-11T04:33:21.480Z,15.45
2017-09-11T04:35:48.929Z,15.20
2017-09-11T04:38:16.492Z,15.20
2017-09-11T04:40:43.969Z,15.18
2017-09-11T04:43:11.440Z,15.22
2017-09-11T04:45:38.968Z,15.18
2017-09-11T04:48:06.436Z,15.18
2017-09-11T04:50:33.908Z,15.18
2017-09-11T04:53:01.436Z,15.07
2017-09-11T04:55:28.887Z,15.15
2017-09-11T04:57:56.449Z,14.93
2017-09-11T05:00:23.898Z,14.80
2017-09-11T05:02:51.371Z,14.91
2017-09-11T05:05:18.816Z,14.89
2017-09-11T05:07:46.255Z,14.83
2017-09-11T05:10:13.724Z,14.81
2017-09-11T05:12:41.241Z,15.03
2017-09-11T05:15:08.728Z,14.87
2017-09-11T05:17:36.208Z,15.08
2017-09-11T05:20:03.694Z,14.99
2017-09-11T05:22:31.139Z,14.98
2017-09-11T05:24:59.078Z,14.99
2017-09-11T05:27:26.608Z,15.11
2017-09-11T05:29:54.080Z,15.14
2017-09-11T05:32:21.560Z,15.14
2017-09-11T05:34:49.033Z,15.09
2017-09-11T05:37:16.578Z,15.18
2017-09-11T05:39:44.576Z,15.22
2017-09-11T05:42:12.027Z,15.17
2017-09-11T05:44:39.509Z,15.13
2017-09-11T05:47:06.995Z,15.19
2017-09-11T05:49:34.463Z,15.22
2017-09-11T05:52:01.976Z,15.06
2017-09-11T05:54:29.464Z,15.06
2017-09-11T05:56:56.917Z,14.94
2017-09-11T05:59:24.387Z,15.05
2017-09-11T06:01:51.835Z,15.01
2017-09-11T06:04:19.380Z,15.11
2017-09-11T06:06:46.828Z,14.90
2017-09-11T06:09:14.333Z,15.07
2017-09-11T06:11:41.784Z,15.14
2017-09-11T06:14:09.230Z,15.19
2017-09-11T06:16:36.715Z,15.03
2017-09-11T06:19:04.176Z,14.94
2017-09-11T06:21:31.648Z,14.95
2017-09-11T06:23:59.106Z,15.04
2017-09-11T06:26:26.609Z,15.05
2017-09-11T06:28:54.057Z,15.11
2017-09-11T06:31:21.548Z,15.20
2017-09-11T06:33:49.005Z,15.21
2017-09-11T06:36:16.477Z,15.19
2017-09-11T06:38:43.936Z,15.14
2017-09-11T06:41:11.408Z,15.22
2017-09-11T06:43:38.867Z,15.22
2017-09-11T06:46:06.397Z,15.23
2017-09-11T06:48:33.843Z,15.10
2017-09-11T06:51:03.165Z,15.16
2017-09-11T06:53:30.612Z,15.13
2017-09-11T06:55:58.104Z,15.25
2017-09-11T06:58:25.566Z,15.36
2017-09-11T07:00:53.040Z,15.26
2017-09-11T07:03:20.510Z,15.36
2017-09-11T07:05:47.976Z,15.32
2017-09-11T07:08:15.431Z,15.64
2017-09-11T07:10:42.941Z,15.58
2017-09-11T07:16:50.269Z,15.92
2017-09-11T07:19:17.773Z,15.93
2017-09-11T07:21:45.771Z,15.81
2017-09-11T07:24:13.249Z,15.78
2017-09-11T07:26:40.714Z,16.14
2017-09-11T07:29:08.156Z,16.30
2017-09-11T07:31:37.338Z,16.45
2017-09-11T07:34:04.811Z,16.56
2017-09-11T07:36:32.306Z,16.73
2017-09-11T07:38:59.769Z,16.55
2017-09-11T07:41:27.289Z,16.57
2017-09-11T07:43:54.764Z,16.52
2017-09-11T07:46:22.238Z,16.63
2017-09-11T07:48:49.804Z,16.51
2017-09-11T07:51:17.253Z,16.71
2017-09-11T07:53:44.740Z,16.59
2017-09-11T07:56:12.319Z,16.64
2017-09-11T07:58:39.813Z,16.66
2017-09-11T08:01:07.260Z,16.65
2017-09-11T08:03:34.732Z,16.85
2017-09-11T08:06:02.222Z,16.81
2017-09-11T08:08:29.713Z,16.69
2017-09-11T08:10:57.160Z,16.92
2017-09-11T08:13:24.665Z,17.24
2017-09-11T08:15:52.108Z,17.71
2017-09-11T08:18:19.580Z,18.13
2017-09-11T08:20:47.076Z,18.13
2017-09-11T08:23:14.614Z,17.88
2017-09-11T08:25:42.061Z,17.75
2017-09-11T08:28:09.540Z,17.90
2017-09-11T08:30:37.078Z,17.51
2017-09-11T08:33:05.596Z,17.27
2017-09-11T08:35:33.120Z,17.24
2017-09-11T08:38:00.665Z,17.29
2017-09-11T08:40:28.247Z,17.24
2017-09-11T08:42:55.693Z,17.07
2017-09-11T08:45:23.173Z,17.22
2017-09-11T08:47:50.624Z,17.29
2017-09-11T08:50:18.100Z,17.37
2017-09-11T08:52:45.565Z,17.22
2017-09-11T08:55:13.060Z,17.26
2017-09-11T08:57:40.521Z,17.29
2017-09-11T09:00:08.004Z,17.43
2017-09-11T09:02:35.456Z,17.42
2017-09-11T09:05:02.943Z,17.39
2017-09-11T09:07:30.448Z,17.58
2017-09-11T09:09:57.971Z,17.79
2017-09-11T09:12:25.433Z,17.96
2017-09-11T09:14:52.904Z,18.06
2017-09-11T09:17:20.355Z,18.08
2017-09-11T09:19:47.825Z,18.18
2017-09-11T09:22:15.290Z,18.34
2017-09-11T09:24:42.761Z,18.61
2017-09-11T09:27:10.219Z,18.44
2017-09-11T09:29:37.764Z,18.83
2017-09-11T09:32:05.252Z,18.59
2017-09-11T09:34:32.730Z,18.70
2017-09-11T09:37:00.207Z,18.45
2017-09-11T09:39:27.665Z,18.46
2017-09-11T09:41:55.152Z,18.71
2017-09-11T09:44:22.709Z,18.89
2017-09-11T09:46:50.193Z,18.67
2017-09-11T09:49:17.738Z,18.78
2017-09-11T09:51:45.209Z,18.96
2017-09-11T09:54:12.664Z,18.76
2017-09-11T09:56:40.999Z,18.85
2017-09-11T09:59:08.463Z,18.92
2017-09-11T10:01:35.936Z,19.17
2017-09-11T10:04:03.485Z,19.11
2017-09-11T10:06:30.957Z,19.13
2017-09-11T10:08:58.713Z,19.00
2017-09-11T10:11:26.189Z,19.07
2017-09-11T10:13:53.773Z,19.17
2017-09-11T10:16:21.239Z,19.34
2017-09-11T10:18:48.691Z,19.77
2017-09-11T10:21:16.177Z,19.54
2017-09-11T10:23:43.679Z,19.65
2017-09-11T10:26:11.224Z,19.72
2017-09-11T10:28:38.675Z,19.76
2017-09-11T10:31:06.176Z,19.74
2017-09-11T10:33:33.628Z,19.57
2017-09-11T10:36:01.109Z,19.44
2017-09-11T10:38:28.592Z,19.50
2017-09-11T10:40:56.046Z,19.56
2017-09-11T10:43:23.540Z,19.92
2017-09-11T10:45:51.103Z,19.90
2017-09-11T10:48:18.581Z,19.68
2017-09-11T10:50:46.052Z,19.65
2017-09-11T10:53:13.545Z,19.47
2017-09-11T10:55:41.002Z,19.58
2017-09-11T10:58:08.472Z,19.56
2017-09-11T11:00:36.024Z,19.49
2017-09-11T11:03:03.494Z,19.49
2017-09-11T11:05:30.944Z,19.51
2017-09-11T11:07:58.422Z,19.66
2017-09-11T11:10:27.758Z,19.80
2017-09-11T11:12:55.440Z,20.25
2017-09-11T11:15:22.917Z,20.26
2017-09-11T11:17:50.383Z,20.28
2017-09-11T11:20:17.909Z,20.24
2017-09-11T11:22:45.389Z,20.03
2017-09-11T11:25:12.925Z,20.22
2017-09-11T11:27:40.368Z,20.67
2017-09-11T11:30:07.840Z,21.04
2017-09-11T11:32:35.324Z,20.92
2017-09-11T11:35:02.801Z,21.28
2017-09-11T11:37:30.317Z,21.45
2017-09-11T11:39:57.800Z,21.56
2017-09-11T11:42:25.285Z,21.66
2017-09-11T11:44:52.761Z,21.37
2017-09-11T11:47:20.250Z,21.73
2017-09-11T11:49:47.719Z,21.17
2017-09-11T11:52:15.168Z,21.47
2017-09-11T11:54:42.659Z,21.30
2017-09-11T11:57:10.120Z,20.75
2017-09-11T11:59:37.605Z,20.58
2017-09-11T12:02:05.053Z,20.49
2017-09-11T12:04:32.524Z,20.40
2017-09-11T12:06:59.992Z,20.30
2017-09-11T12:09:27.516Z,20.37
2017-09-11T12:11:54.980Z,20.58
2017-09-11T12:14:22.452Z,20.63
2017-09-11T12:16:49.910Z,21.07
2017-09-11T12:19:17.387Z,20.84
2017-09-11T12:21:45.547Z,20.76
2017-09-11T12:24:13.080Z,20.48
2017-09-11T12:26:40.547Z,20.31
2017-09-11T12:29:08.025Z,20.45
2017-09-11T12:31:35.508Z,19.67
2017-09-11T12:34:03.040Z,19.05
2017-09-11T12:36:30.512Z,18.22
2017-09-11T12:38:57.960Z,18.50
2017-09-11T12:41:25.431Z,18.20
2017-09-11T12:43:52.888Z,18.24
2017-09-11T12:46:20.425Z,18.43
2017-09-11T12:48:47.931Z,18.89
2017-09-11T12:51:15.399Z,19.11
2017-09-11T12:53:42.843Z,19.25
2017-09-11T12:56:10.446Z,19.40
2017-09-11T12:58:37.939Z,19.69
2017-09-11T13:01:05.417Z,19.74
2017-09-11T13:03:32.923Z,19.48
2017-09-11T13:06:00.431Z,19.57
2017-09-11T13:08:27.881Z,19.54
2017-09-11T13:10:55.401Z,19.63
2017-09-11T13:13:22.852Z,19.75
2017-09-11T13:15:50.361Z,19.88
2017-09-11T13:18:17.816Z,19.87
2017-09-11T13:20:45.305Z,20.09
2017-09-11T13:23:12.775Z,20.05
2017-09-11T13:25:40.237Z,20.05
2017-09-11T13:28:07.732Z,19.99
2017-09-11T13:30:35.180Z,20.26
2017-09-11T13:33:02.719Z,20.61
2017-09-11T13:35:30.224Z,20.58
2017-09-11T13:37:57.711Z,20.65
2017-09-11T13:40:25.165Z,20.53
2017-09-11T13:42:52.640Z,20.26
2017-09-11T13:45:20.433Z,19.78
2017-09-11T13:47:47.958Z,19.60
2017-09-11T13:50:15.776Z,19.87
2017-09-11T13:52:43.283Z,20.05
2017-09-11T13:55:10.746Z,20.06
2017-09-11T13:57:38.219Z,20.05
2017-09-11T14:00:05.672Z,20.08
2017-09-11T14:02:33.209Z,20.18
2017-09-11T14:05:00.657Z,20.20
2017-09-11T14:07:28.124Z,19.97
2017-09-11T14:09:55.574Z,20.06
2017-09-11T14:12:23.044Z,19.81
2017-09-11T14:14:50.504Z,19.64
2017-09-11T14:17:17.981Z,19.49
2017-09-11T14:19:45.440Z,19.76
2017-09-11T14:22:12.968Z,19.65
2017-09-11T14:24:40.424Z,20.05
2017-09-11T14:27:07.884Z,19.85
2017-09-11T14:29:35.393Z,19.67
2017-09-11T14:32:02.889Z,19.76
2017-09-11T14:34:30.361Z,19.80
2017-09-11T14:36:57.813Z,20.26
2017-09-11T14:39:25.291Z,20.57
2017-09-11T14:41:52.749Z,20.62
2017-09-11T14:44:20.225Z,20.50
2017-09-11T14:46:47.740Z,19.97
2017-09-11T14:49:15.245Z,19.79
2017-09-11T14:51:42.701Z,19.76
2017-09-11T14:54:10.180Z,19.70
2017-09-11T14:56:37.624Z,19.81
2017-09-11T14:59:05.117Z,19.69
2017-09-11T15:01:32.567Z,19.77
2017-09-11T15:04:00.037Z,19.40
2017-09-11T15:06:27.521Z,19.49
2017-09-11T15:08:55.002Z,19.57
2017-09-11T15:11:22.595Z,19.41
2017-09-11T15:13:50.115Z,19.34
2017-09-11T15:16:17.569Z,19.35
2017-09-11T15:18:45.064Z,19.33
2017-09-11T15:21:12.520Z,19.52
2017-09-11T15:23:40.260Z,19.06
2017-09-11T15:26:07.712Z,19.14
2017-09-11T15:28:35.205Z,19.21
2017-09-11T15:31:02.675Z,19.41
2017-09-11T15:33:30.141Z,19.53
2017-09-11T15:35:57.613Z,19.48
2017-09-11T15:38:25.069Z,19.44
2017-09-11T15:40:52.663Z,19.23
2017-09-11T15:43:20.194Z,19.18
2017-09-11T15:45:47.673Z,18.95
2017-09-11T15:48:15.132Z,18.74
2017-09-11T15:50:42.614Z,18.68
2017-09-11T15:53:10.086Z,18.50
2017-09-11T15:55:37.569Z,18.24
2017-09-11T15:58:05.021Z,18.52
2017-09-11T16:00:32.545Z,18.00
2017-09-11T16:02:59.991Z,17.85
2017-09-11T16:05:27.478Z,17.67
2017-09-11T16:07:54.957Z,17.73
2017-09-11T16:10:22.492Z,17.66
2017-09-11T16:12:49.948Z,17.59
2017-09-11T16:15:17.420Z,17.60
2017-09-11T16:17:44.867Z,17.91
2017-09-11T16:20:12.412Z,17.70
2017-09-11T16:22:40.032Z,17.39
2017-09-11T16:25:07.532Z,17.55
2017-09-11T16:27:34.995Z,17.45
2017-09-11T16:30:02.455Z,17.47
2017-09-11T16:32:29.948Z,17.67
2017-09-11T16:34:57.608Z,17.52
2017-09-11T16:37:25.081Z,17.61
2017-09-11T16:39:52.541Z,17.71
2017-09-11T16:42:20.017Z,17.81
2017-09-11T16:44:47.488Z,17.75
2017-09-11T16:47:14.959Z,17.76
2017-09-11T16:49:42.416Z,17.79
2017-09-11T16:52:09.903Z,17.70
2017-09-11T16:54:37.380Z,17.42
2017-09-11T16:57:04.853Z,17.39
2017-09-11T16:59:32.308Z,17.14
2017-09-11T17:01:59.820Z,17.25
2017-09-11T17:04:27.328Z,17.07
2017-09-11T17:06:54.801Z,17.09
2017-09-11T17:09:22.269Z,17.12
2017-09-11T17:11:49.745Z,17.19
2017-09-11T17:14:17.207Z,17.28
2017-09-11T17:16:44.682Z,17.13
2017-09-11T17:19:12.150Z,17.56
2017-09-11T17:21:39.623Z,17.31
2017-09-11T17:24:07.086Z,17.17
2017-09-11T17:26:34.588Z,17.18
2017-09-11T17:29:02.047Z,16.86
2017-09-11T17:31:29.573Z,17.14
2017-09-11T17:33:57.025Z,16.81
2017-09-11T17:36:24.588Z,16.99
2017-09-11T17:38:52.056Z,17.11
2017-09-11T17:41:19.529Z,17.11
2017-09-11T17:43:47.005Z,16.93
2017-09-11T17:46:14.548Z,16.79
2017-09-11T17:48:42.026Z,16.75
2017-09-11T17:51:09.549Z,16.78
2017-09-11T17:53:37.025Z,16.73
2017-09-11T17:56:04.486Z,16.60
2017-09-11T17:58:32.132Z,16.54
2017-09-11T18:00:59.592Z,16.71
2017-09-11T18:03:27.093Z,16.57
2017-09-11T18:05:54.536Z,16.39
2017-09-11T18:08:22.013Z,16.33
2017-09-11T18:10:49.489Z,16.30
2017-09-11T18:13:16.963Z,16.34
2017-09-11T18:15:44.412Z,16.49
2017-09-11T18:18:11.889Z,16.32
2017-09-11T18:20:39.426Z,16.25
2017-09-11T18:23:06.911Z,16.24
2017-09-11T18:25:34.440Z,16.09
2017-09-11T18:28:01.903Z,16.30
2017-09-11T18:30:29.371Z,16.13
2017-09-11T18:32:57.028Z,15.91
2017-09-11T18:35:24.561Z,15.94
2017-09-11T18:37:52.008Z,15.78
2017-09-11T18:40:19.534Z,15.93
2017-09-11T18:42:46.985Z,15.81
2017-09-11T18:45:14.627Z,15.83
2017-09-11T18:47:42.152Z,15.94
2017-09-11T18:50:09.625Z,15.71
2017-09-11T18:52:37.106Z,15.63
2017-09-11T18:55:04.585Z,15.53
2017-09-11T18:57:32.544Z,15.43
2017-09-11T19:00:00.008Z,15.53
2017-09-11T19:02:27.464Z,15.40
2017-09-11T19:04:54.962Z,15.64
2017-09-11T19:07:22.408Z,15.54
2017-09-11T19:09:50.210Z,15.32
2017-09-11T19:12:17.660Z,15.32
2017-09-11T19:14:45.157Z,15.33
2017-09-11T19:17:12.604Z,15.61
2017-09-11T19:19:40.076Z,15.44
2017-09-11T19:22:07.595Z,15.54
2017-09-11T19:24:35.090Z,15.51
2017-09-11T19:27:02.540Z,15.66
2017-09-11T19:29:30.055Z,15.54
2017-09-11T19:31:57.541Z,15.42
2017-09-11T19:34:25.048Z,15.51
2017-09-11T19:36:52.515Z,15.36
2017-09-11T19:39:19.973Z,15.30
2017-09-11T19:41:47.520Z,15.57
2017-09-11T19:44:15.093Z,15.49
2017-09-11T19:46:42.651Z,15.52
2017-09-11T19:49:10.108Z,15.38
2017-09-11T19:51:37.605Z,15.43
2017-09-11T19:54:05.082Z,15.48
2017-09-11T19:56:32.604Z,15.49
2017-09-11T19:59:00.699Z,15.50
2017-09-11T20:01:28.213Z,15.43
2017-09-11T20:03:55.695Z,15.60
2017-09-11T20:06:23.220Z,15.40
2017-09-11T20:08:50.773Z,15.43
2017-09-11T20:11:18.845Z,15.45
2017-09-11T20:13:46.324Z,15.49
2017-09-11T20:16:13.825Z,15.23
2017-09-11T20:18:41.285Z,15.24
2017-09-11T20:21:08.768Z,15.51
2017-09-11T20:23:36.250Z,15.40
2017-09-11T20:26:03.793Z,15.28
2017-09-11T20:28:31.287Z,15.19
2017-09-11T20:30:58.759Z,15.16
2017-09-11T20:33:26.208Z,15.16
2017-09-11T20:35:53.733Z,15.49
2017-09-11T20:38:21.221Z,15.38
2017-09-11T20:40:48.692Z,15.30
2017-09-11T20:43:16.175Z,15.46
2017-09-11T20:45:43.639Z,15.44
2017-09-11T20:48:11.142Z,15.54
2017-09-11T20:50:38.660Z,15.47
2017-09-11T20:53:06.131Z,15.29
2017-09-11T20:55:33.635Z,15.38
2017-09-11T20:58:01.278Z,15.37
2017-09-11T21:00:28.732Z,15.38
2017-09-11T21:02:56.228Z,15.40
2017-09-11T21:05:23.689Z,15.28
2017-09-11T21:07:51.260Z,15.30
2017-09-11T21:10:18.707Z,15.23
2017-09-11T21:12:46.194Z,15.12
2017-09-11T21:15:13.643Z,15.09
2017-09-11T21:17:41.108Z,15.04
2017-09-11T21:20:08.555Z,14.99
2017-09-11T21:22:36.029Z,15.06
2017-09-11T21:25:03.505Z,14.99
2017-09-11T21:27:31.009Z,15.30
2017-09-11T21:29:58.455Z,15.10
2017-09-11T21:32:25.904Z,14.98
2017-09-11T21:34:53.387Z,14.85
2017-09-11T21:37:20.839Z,14.69
2017-09-11T21:39:48.326Z,14.77
2017-09-11T21:42:15.807Z,14.74
2017-09-11T21:44:43.314Z,14.85
2017-09-11T21:47:10.767Z,14.89
2017-09-11T21:49:38.232Z,14.78
2017-09-11T21:52:05.681Z,14.83
2017-09-11T21:54:33.161Z,14.88
2017-09-11T21:57:00.717Z,14.77
2017-09-11T21:59:28.189Z,14.77
2017-09-11T22:01:55.639Z,14.89
2017-09-11T22:04:23.182Z,14.71
2017-09-11T22:06:50.629Z,14.88
2017-09-11T22:09:18.127Z,14.52
2017-09-11T22:11:45.601Z,14.58
2017-09-11T22:14:13.085Z,14.50
2017-09-11T22:16:40.551Z,14.62
2017-09-11T22:19:08.032Z,14.52
2017-09-11T22:21:35.485Z,14.57
2017-09-11T22:24:03.029Z,14.53
2017-09-11T22:26:30.585Z,14.51
2017-09-11T22:28:58.031Z,14.51
2017-09-11T22:31:25.509Z,14.41
2017-09-11T22:33:52.974Z,14.48
2017-09-11T22:36:20.513Z,14.45
2017-09-11T22:38:48.076Z,14.50
2017-09-11T22:41:15.644Z,14.38
2017-09-11T22:43:43.098Z,14.36
2017-09-11T22:46:10.592Z,14.43
2017-09-11T22:48:38.057Z,14.13
2017-09-11T22:51:05.560Z,13.90
2017-09-11T22:53:33.120Z,14.02
2017-09-11T22:56:00.588Z,13.96
2017-09-11T22:58:28.046Z,13.68
2017-09-11T23:00:55.520Z,13.88
2017-09-11T23:03:22.981Z,13.73
2017-09-11T23:05:50.463Z,13.52
2017-09-11T23:08:18.075Z,13.60
2017-09-11T23:10:45.564Z,13.84
2017-09-11T23:13:13.009Z,13.83
2017-09-11T23:15:40.492Z,13.78
2017-09-11T23:18:07.948Z,13.88
2017-09-11T23:20:35.447Z,13.97
2017-09-11T23:23:02.942Z,13.83
2017-09-11T23:25:30.464Z,13.99
2017-09-11T23:27:57.918Z,14.02
2017-09-11T23:30:25.479Z,14.07
2017-09-11T23:32:52.941Z,14.12
2017-09-11T23:35:20.415Z,14.10
2017-09-11T23:37:47.891Z,14.14
2017-09-11T23:40:15.340Z,14.06
2017-09-11T23:42:42.836Z,14.11
2017-09-11T23:45:10.283Z,14.14
2017-09-11T23:47:37.765Z,14.14
2017-09-11T23:50:05.231Z,14.15
2017-09-11T23:52:32.720Z,14.05
2017-09-11T23:55:00.176Z,13.90
2017-09-11T23:57:27.668Z,13.79
2017-09-11T23:59:55.120Z,13.87
